Bookmark and Share
Track history (hours):
 

Parma

Last reported at 2014-Apr-13 13:33 UTC. Time now 2014-Apr-24 00:11 UTC.
Position N 36°13' W 008°54'.
Warning: this ship's position is 10 days out of date.

MMSI: 279073176.

NotesDate/timePositionNaut miles runAvg speedWind from/ knotsBaromVisibWave heightAir tempDewpointWater temp
2014-Apr-13 13:33N 36°13' W 008°54'63 8.8
2014-Apr-13 06:20N 37°05' W 009°38'8 9.8
2014-Apr-13 05:31N 37°13' W 009°40'10 9.9
2014-Apr-13 04:30N 37°23' W 009°43'21 9.3
2014-Apr-13 02:15N 37°43' W 009°49'7 8.6
2014-Apr-13 01:29N 37°50' W 009°50'9 8.7
2014-Apr-13 00:29N 37°58' W 009°53'22 9.3
2014-Apr-12 22:06N 38°20' W 009°59'7 9.5
2014-Apr-12 21:23N 38°27' W 010°01'  
2014-Apr-09 13:28N 50°28' W 005°46'17 8.7
2014-Apr-09 11:33N 50°39' W 005°26'9 8.6
2014-Apr-09 10:33N 50°44' W 005°15'80 9.5
2014-Apr-09 02:11N 51°21' W 003°23'6 9.3
2014-Apr-09 01:33N 51°22' W 003°14'10 9.7
2014-Apr-09 00:33N 51°28' W 003°01'5 2.4
2014-Apr-08 22:21N 51°33' W 002°59'0 0.0
2014-Apr-08 20:33N 51°33' W 002°59'0 0.0
2014-Apr-08 19:25N 51°33' W 002°59'0 0.0
2014-Apr-08 17:33N 51°33' W 002°59'0 0.0
2014-Apr-08 10:28N 51°33' W 002°59'0 0.0
2014-Apr-08 09:28N 51°33' W 002°59'0 0.0
2014-Apr-08 08:31N 51°33' W 002°59'0 0.0
2014-Apr-08 07:34N 51°33' W 002°59'0 0.0
2014-Apr-08 06:33N 51°33' W 002°59'0 0.0
2014-Apr-08 05:26N 51°33' W 002°59'0 0.0
2014-Apr-07 16:04N 51°33' W 002°59'0 0.0
2014-Apr-07 15:20N 51°33' W 002°59'0 0.0
2014-Apr-07 14:31N 51°33' W 002°59'0 0.0
2014-Apr-07 13:31N 51°33' W 002°59'0 0.0
2014-Apr-07 12:33N 51°33' W 002°59'0 0.0
2014-Apr-07 11:33N 51°33' W 002°59'0 0.0
2014-Apr-07 10:31N 51°33' W 002°59'0 0.0
2014-Apr-07 09:33N 51°33' W 002°59'0 0.0
2014-Apr-07 08:26N 51°33' W 002°59'0 0.0
2014-Apr-07 07:20N 51°33' W 002°59'0 0.0
2014-Apr-07 06:31N 51°33' W 002°59'0 0.0
2014-Apr-07 05:31N 51°33' W 002°59'0 0.0
2014-Apr-07 04:31N 51°33' W 002°59'0 0.0
2014-Apr-07 03:31N 51°33' W 002°59'0 0.0
2014-Apr-07 02:31N 51°33' W 002°59'0 0.0
2014-Apr-07 01:31N 51°33' W 002°59'0 0.0
2014-Apr-07 00:31N 51°33' W 002°59'0 0.0
2014-Apr-06 23:13N 51°33' W 002°59'0 0.0
2014-Apr-06 22:25N 51°33' W 002°59'0 0.0
2014-Apr-06 21:31N 51°33' W 002°59'0 0.0
2014-Apr-06 20:31N 51°33' W 002°59'0 0.0
2014-Apr-06 18:13N 51°33' W 002°59'0 0.0
2014-Apr-06 17:25N 51°33' W 002°59'0 0.0
2014-Apr-06 16:13N 51°33' W 002°59'0 0.0
2014-Apr-06 15:19N 51°33' W 002°59'0 0.0
2014-Apr-06 14:25N 51°33' W 002°59'0 0.0
2014-Apr-06 13:19N 51°33' W 002°59'0 0.0
2014-Apr-06 12:25N 51°33' W 002°59'0 0.0
2014-Apr-06 10:25N 51°33' W 002°59'0 0.0
2014-Apr-06 09:25N 51°33' W 002°59'0 0.0
2014-Apr-06 07:31N 51°33' W 002°59'0 0.0
2014-Apr-06 05:18N 51°33' W 002°59'0 0.0
2014-Apr-06 04:30N 51°33' W 002°59'0 0.0
2014-Apr-06 03:30N 51°33' W 002°59'0 0.0
2014-Apr-06 02:30N 51°33' W 002°59'0 0.0
2014-Apr-06 01:30N 51°33' W 002°59'0 0.0
2014-Apr-06 00:30N 51°33' W 002°59'0 0.0
2014-Apr-05 20:30N 51°33' W 002°59'0 0.0
2014-Apr-05 19:18N 51°33' W 002°59'0 0.0
2014-Apr-05 17:23N 51°33' W 002°59'0 0.0
2014-Apr-05 16:29N 51°33' W 002°59'0 0.0
2014-Apr-05 15:23N 51°33' W 002°59'  

Dump ship's entire track history

sailing weather and tide predictions

Parma — V2OZ9 — position and weather